createdAt,value
2019-06-10T00:00:33.578Z,68.82
2019-06-10T00:03:05.995Z,68.90
2019-06-10T00:05:35.110Z,69.04
2019-06-10T00:08:03.866Z,68.61
2019-06-10T00:10:31.169Z,69.04
2019-06-10T00:12:58.177Z,69.11
2019-06-10T00:15:25.150Z,69.19
2019-06-10T00:18:07.064Z,69.70
2019-06-10T00:20:26.169Z,69.29
2019-06-10T00:22:53.149Z,69.60
2019-06-10T00:25:21.048Z,68.87
2019-06-10T00:27:51.163Z,68.19
2019-06-10T00:30:20.900Z,68.02
2019-06-10T00:32:51.593Z,67.63
2019-06-10T00:35:20.969Z,67.53
2019-06-10T00:37:47.651Z,67.14
2019-06-10T00:40:14.632Z,67.53
2019-06-10T00:42:45.674Z,67.66
2019-06-10T00:45:17.830Z,67.73
2019-06-10T00:47:41.686Z,67.32
2019-06-10T00:50:14.522Z,66.46
2019-06-10T00:52:43.122Z,66.84
2019-06-10T00:55:12.060Z,65.89
2019-06-10T00:57:38.123Z,65.51
2019-06-10T01:00:15.826Z,65.11
2019-06-10T01:02:35.284Z,65.06
2019-06-10T01:05:05.337Z,64.82
2019-06-10T01:07:32.375Z,64.84
2019-06-10T01:10:02.845Z,65.27
2019-06-10T01:12:34.538Z,65.10
2019-06-10T01:15:01.540Z,65.06
2019-06-10T01:17:30.990Z,65.12
2019-06-10T01:20:01.678Z,65.50
2019-06-10T01:22:28.748Z,65.45
2019-06-10T01:24:55.747Z,64.61
2019-06-10T01:27:31.392Z,63.97
2019-06-10T01:29:58.091Z,63.77
2019-06-10T01:32:25.107Z,63.67
2019-06-10T01:34:52.490Z,63.89
2019-06-10T01:37:21.818Z,63.95
2019-06-10T01:39:48.369Z,64.22
2019-06-10T01:42:17.217Z,64.28
2019-06-10T01:44:44.258Z,64.44
2019-06-10T01:47:12.984Z,64.97
2019-06-10T01:49:41.222Z,65.00
2019-06-10T01:52:12.451Z,65.00
2019-06-10T01:54:42.183Z,65.84
2019-06-10T01:57:13.759Z,65.96
2019-06-10T01:59:44.291Z,65.61
2019-06-10T02:02:17.675Z,65.56
2019-06-10T02:04:44.946Z,66.20
2019-06-10T02:07:15.519Z,65.87
2019-06-10T02:09:45.321Z,66.06
2019-06-10T02:12:15.890Z,67.00
2019-06-10T02:14:41.636Z,67.18
2019-06-10T02:17:13.075Z,67.60
2019-06-10T02:19:41.438Z,67.93
2019-06-10T02:22:08.564Z,68.26
2019-06-10T02:24:41.670Z,67.83
2019-06-10T02:27:11.714Z,67.83
2019-06-10T02:29:37.924Z,68.32
2019-06-10T02:32:05.317Z,69.25
2019-06-10T02:34:34.093Z,69.35
2019-06-10T02:37:04.666Z,69.32
2019-06-10T02:39:35.108Z,69.73
2019-06-10T02:42:04.965Z,69.64
2019-06-10T02:44:37.132Z,69.59
2019-06-10T02:47:03.752Z,69.81
2019-06-10T02:49:51.672Z,69.68
2019-06-10T02:52:03.434Z,69.56
2019-06-10T02:54:35.463Z,69.48
2019-06-10T02:56:59.662Z,69.66
2019-06-10T02:59:31.130Z,69.95
2019-06-10T03:01:58.660Z,70.32
2019-06-10T03:04:36.526Z,70.04
2019-06-10T03:07:03.197Z,69.87
2019-06-10T03:09:31.927Z,69.59
2019-06-10T03:11:57.693Z,69.81
2019-06-10T03:14:25.382Z,70.52
2019-06-10T03:16:56.183Z,70.13
2019-06-10T03:19:41.908Z,70.38
2019-06-10T03:21:56.677Z,69.98
2019-06-10T03:24:25.200Z,70.07
2019-06-10T03:26:55.241Z,70.10
2019-06-10T03:29:25.341Z,70.13
2019-06-10T03:31:55.402Z,70.62
2019-06-10T03:34:28.289Z,70.67
2019-06-10T03:36:50.348Z,70.37
2019-06-10T03:39:18.554Z,70.35
2019-06-10T03:41:45.732Z,70.73
2019-06-10T03:44:17.821Z,71.12
2019-06-10T03:46:47.223Z,71.22
2019-06-10T03:49:14.172Z,71.38
2019-06-10T03:51:42.764Z,71.62
2019-06-10T03:54:10.285Z,71.61
2019-06-10T03:56:37.254Z,72.04
2019-06-10T03:59:07.054Z,72.23
2019-06-10T04:01:35.933Z,72.06
2019-06-10T04:04:03.029Z,72.23
2019-06-10T04:06:33.356Z,72.67
2019-06-10T04:09:03.950Z,72.74
2019-06-10T04:11:34.830Z,72.75
2019-06-10T04:14:02.227Z,73.01
2019-06-10T04:16:34.435Z,73.43
2019-06-10T04:19:02.568Z,73.54
2019-06-10T04:21:32.598Z,73.42
2019-06-10T04:24:02.059Z,73.38
2019-06-10T04:26:29.680Z,73.06
2019-06-10T04:28:56.744Z,73.37
2019-06-10T04:31:26.543Z,73.12
2019-06-10T04:33:53.941Z,73.49
2019-06-10T04:36:28.205Z,73.98
2019-06-10T04:38:59.425Z,74.55
2019-06-10T04:41:32.445Z,73.89
2019-06-10T04:43:59.577Z,74.51
2019-06-10T04:46:29.639Z,74.01
2019-06-10T04:48:56.717Z,74.46
2019-06-10T04:51:26.458Z,74.91
2019-06-10T04:53:52.728Z,74.89
2019-06-10T04:56:19.762Z,74.90
2019-06-10T04:58:46.737Z,75.74
2019-06-10T05:01:13.705Z,75.71
2019-06-10T05:03:43.210Z,75.78
2019-06-10T05:06:12.121Z,76.46
2019-06-10T05:08:47.308Z,76.70
2019-06-10T05:11:19.410Z,76.70
2019-06-10T05:13:46.406Z,76.75
2019-06-10T05:16:19.680Z,77.22
2019-06-10T05:18:46.644Z,77.54
2019-06-10T05:21:13.684Z,77.57
2019-06-10T05:23:42.790Z,77.40
2019-06-10T05:26:09.645Z,77.86
2019-06-10T05:28:42.961Z,77.57
2019-06-10T05:31:09.486Z,77.77
2019-06-10T05:33:36.435Z,77.98
2019-06-10T05:36:03.547Z,77.55
2019-06-10T05:38:35.056Z,77.83
2019-06-10T05:41:03.001Z,77.76
2019-06-10T05:43:32.930Z,77.88
2019-06-10T05:46:03.142Z,77.73
2019-06-10T05:48:34.873Z,77.81
2019-06-10T05:51:05.744Z,78.31
2019-06-10T05:53:29.315Z,77.66
2019-06-10T05:56:02.590Z,77.62
2019-06-10T05:58:35.994Z,77.51
2019-06-10T06:01:03.099Z,77.27
2019-06-10T06:03:36.939Z,77.46
2019-06-10T06:06:08.106Z,77.34
2019-06-10T06:08:35.574Z,76.76
2019-06-10T06:11:12.838Z,76.66
2019-06-10T06:13:39.949Z,76.40
2019-06-10T06:16:07.357Z,76.44
2019-06-10T06:18:36.812Z,76.09
2019-06-10T06:21:20.951Z,75.90
2019-06-10T06:23:36.733Z,75.61
2019-06-10T06:26:04.744Z,75.33
2019-06-10T06:28:36.075Z,75.24
2019-06-10T06:31:03.493Z,75.22
2019-06-10T06:33:34.521Z,74.83
2019-06-10T06:36:03.449Z,75.05
2019-06-10T06:38:37.206Z,75.30
2019-06-10T06:41:10.616Z,75.20
2019-06-10T06:43:41.980Z,75.25
2019-06-10T06:46:06.483Z,75.91
2019-06-10T06:48:38.762Z,75.23
2019-06-10T06:51:08.287Z,75.73
2019-06-10T06:53:44.407Z,75.92
2019-06-10T06:56:04.812Z,75.30
2019-06-10T06:58:36.945Z,74.46
2019-06-10T07:01:10.478Z,74.46
2019-06-10T07:03:35.225Z,73.29
2019-06-10T07:06:07.477Z,72.97
2019-06-10T07:08:38.106Z,71.68
2019-06-10T07:11:05.436Z,71.18
2019-06-10T07:13:35.473Z,69.82
2019-06-10T07:16:02.938Z,69.21
2019-06-10T07:18:32.674Z,68.63
2019-06-10T07:20:59.120Z,68.30
2019-06-10T07:23:30.023Z,68.13
2019-06-10T07:25:56.996Z,68.38
2019-06-10T07:28:23.986Z,68.53
2019-06-10T07:30:55.308Z,69.33
2019-06-10T07:33:22.721Z,69.44
2019-06-10T07:35:52.342Z,69.61
2019-06-10T07:38:18.744Z,69.00
2019-06-10T07:40:45.984Z,69.16
2019-06-10T07:43:13.083Z,68.75
2019-06-10T07:45:47.382Z,68.10
2019-06-10T07:48:13.999Z,68.01
2019-06-10T07:50:47.416Z,67.83
2019-06-10T07:53:14.376Z,67.20
2019-06-10T07:55:44.775Z,67.81
2019-06-10T07:58:17.559Z,67.28
2019-06-10T08:00:53.465Z,66.79
2019-06-10T08:03:22.462Z,66.71
2019-06-10T08:05:49.603Z,67.27
2019-06-10T08:08:23.549Z,67.99
2019-06-10T08:10:52.797Z,66.50
2019-06-10T08:13:19.488Z,66.50
2019-06-10T08:15:46.487Z,67.42
2019-06-10T08:18:13.440Z,66.49
2019-06-10T08:20:48.033Z,66.57
2019-06-10T08:23:19.398Z,67.21
2019-06-10T08:25:53.339Z,66.32
2019-06-10T08:28:19.335Z,67.02
2019-06-10T08:30:46.331Z,67.02
2019-06-10T08:33:13.884Z,66.97
2019-06-10T08:35:48.383Z,66.21
2019-06-10T08:38:12.417Z,66.60
2019-06-10T08:40:40.650Z,65.76
2019-06-10T08:43:08.442Z,65.76
2019-06-10T08:45:38.932Z,65.81
2019-06-10T08:48:06.136Z,66.08
2019-06-10T08:50:33.820Z,65.93
2019-06-10T08:53:13.504Z,64.65
2019-06-10T08:55:33.467Z,65.16
2019-06-10T08:58:02.756Z,64.39
2019-06-10T09:00:33.156Z,65.24
2019-06-10T09:03:07.110Z,65.58
2019-06-10T09:05:34.093Z,65.59
2019-06-10T09:08:02.862Z,66.88
2019-06-10T09:10:33.918Z,65.92
2019-06-10T09:13:02.756Z,65.92
2019-06-10T09:15:32.364Z,66.19
2019-06-10T09:18:02.641Z,65.61
2019-06-10T09:20:29.933Z,65.61
2019-06-10T09:23:15.043Z,64.91
2019-06-10T09:25:25.847Z,66.54
2019-06-10T09:27:54.776Z,66.16
2019-06-10T09:30:24.904Z,66.20
2019-06-10T09:32:56.423Z,65.44
2019-06-10T09:35:23.401Z,66.31
2019-06-10T09:37:55.846Z,67.05
2019-06-10T09:40:33.348Z,65.42
2019-06-10T09:43:02.366Z,66.98
2019-06-10T09:45:28.660Z,67.78
2019-06-10T09:48:00.251Z,66.39
2019-06-10T09:50:38.278Z,67.54
2019-06-10T09:53:05.232Z,65.90
2019-06-10T09:55:32.870Z,65.05
2019-06-10T09:58:03.189Z,66.39
2019-06-10T10:00:47.543Z,65.95
2019-06-10T10:03:16.147Z,65.94
2019-06-10T10:05:55.867Z,65.82
2019-06-10T10:08:12.897Z,65.93
2019-06-10T10:10:42.839Z,66.37
2019-06-10T10:13:09.733Z,66.82
2019-06-10T10:15:37.149Z,66.62
2019-06-10T10:18:13.191Z,65.97
2019-06-10T10:20:39.429Z,66.91
2019-06-10T10:23:06.802Z,65.77
2019-06-10T10:25:35.913Z,66.86
2019-06-10T10:28:03.311Z,67.11
2019-06-10T10:30:33.009Z,66.96
2019-06-10T10:33:03.887Z,67.89
2019-06-10T10:35:32.645Z,66.64
2019-06-10T10:37:59.882Z,66.69
2019-06-10T10:40:28.258Z,66.62
2019-06-10T10:43:10.101Z,67.55
2019-06-10T10:45:24.244Z,65.55
2019-06-10T10:47:52.609Z,66.23
2019-06-10T10:50:22.531Z,65.89
2019-06-10T10:52:49.929Z,65.86
2019-06-10T10:55:22.176Z,66.42
2019-06-10T10:57:49.377Z,66.20
2019-06-10T11:00:19.485Z,66.55
2019-06-10T11:02:53.083Z,66.81
2019-06-10T11:05:33.947Z,66.33
2019-06-10T11:08:01.375Z,65.03
2019-06-10T11:10:29.444Z,66.45
2019-06-10T11:12:57.935Z,65.60
2019-06-10T11:15:27.305Z,65.68
2019-06-10T11:17:56.357Z,66.37
2019-06-10T11:20:23.207Z,66.93
2019-06-10T11:22:51.395Z,66.31
2019-06-10T11:25:18.565Z,65.94
2019-06-10T11:27:48.568Z,65.18
2019-06-10T11:30:16.017Z,65.39
2019-06-10T11:32:43.345Z,65.03
2019-06-10T11:35:13.435Z,66.21
2019-06-10T11:37:42.288Z,66.80
2019-06-10T11:40:09.532Z,65.49
2019-06-10T11:42:36.543Z,66.64
2019-06-10T11:45:07.382Z,66.75
2019-06-10T11:47:34.363Z,65.73
2019-06-10T11:50:03.508Z,66.61
2019-06-10T11:52:33.359Z,66.03
2019-06-10T11:55:11.696Z,66.35
2019-06-10T11:57:28.067Z,66.66
2019-06-10T11:59:56.590Z,65.74
2019-06-10T12:02:23.916Z,67.48
2019-06-10T12:04:53.200Z,66.98
2019-06-10T12:07:22.335Z,67.59
2019-06-10T12:09:50.848Z,66.69
2019-06-10T12:12:18.414Z,67.24
2019-06-10T12:14:45.356Z,67.44
2019-06-10T12:17:27.582Z,66.38
2019-06-10T12:19:43.283Z,67.21
2019-06-10T12:22:10.272Z,68.24
2019-06-10T12:24:43.476Z,68.57
2019-06-10T12:27:12.959Z,68.73
2019-06-10T12:29:39.330Z,68.86
2019-06-10T12:32:08.094Z,69.67
2019-06-10T12:34:40.523Z,69.18
2019-06-10T12:37:11.121Z,69.62
2019-06-10T12:39:36.421Z,68.81
2019-06-10T12:42:06.549Z,69.46
2019-06-10T12:44:37.713Z,69.70
2019-06-10T12:47:07.598Z,69.08
2019-06-10T12:49:35.772Z,68.73
2019-06-10T12:52:07.251Z,68.72
2019-06-10T12:54:32.662Z,69.03
2019-06-10T12:57:04.768Z,68.86
2019-06-10T12:59:32.664Z,68.72
2019-06-10T13:02:06.723Z,68.32
2019-06-10T13:04:28.937Z,67.55
2019-06-10T13:07:00.301Z,67.75
2019-06-10T13:09:29.537Z,68.21
2019-06-10T13:11:57.779Z,67.85
2019-06-10T13:14:25.892Z,68.35
2019-06-10T13:16:55.925Z,68.23
2019-06-10T13:19:23.231Z,68.68
2019-06-10T13:21:50.337Z,68.82
2019-06-10T13:24:17.302Z,68.54
2019-06-10T13:26:44.349Z,69.92
2019-06-10T13:29:16.865Z,69.41
2019-06-10T13:31:44.186Z,69.08
2019-06-10T13:34:13.967Z,68.94
2019-06-10T13:36:42.106Z,68.16
2019-06-10T13:39:10.481Z,68.14
2019-06-10T13:41:38.919Z,68.67
2019-06-10T13:44:06.354Z,68.70
2019-06-10T13:46:33.477Z,68.69
2019-06-10T13:49:10.626Z,68.84
2019-06-10T13:51:36.670Z,69.39
2019-06-10T13:54:06.677Z,68.90
2019-06-10T13:56:45.693Z,68.56
2019-06-10T13:59:03.672Z,69.52
2019-06-10T14:01:30.430Z,69.22
2019-06-10T14:03:57.476Z,69.23
2019-06-10T14:06:39.588Z,69.46
2019-06-10T14:08:55.042Z,69.00
2019-06-10T14:11:27.938Z,69.61
2019-06-10T14:13:53.322Z,69.12
2019-06-10T14:16:20.310Z,69.59
2019-06-10T14:18:47.300Z,69.02
2019-06-10T14:21:18.549Z,69.05
2019-06-10T14:23:48.174Z,69.08
2019-06-10T14:26:17.122Z,69.90
2019-06-10T14:28:44.481Z,69.82
2019-06-10T14:31:33.702Z,69.22
2019-06-10T14:33:43.077Z,69.39
2019-06-10T14:36:16.877Z,69.65
2019-06-10T14:38:44.016Z,70.33
2019-06-10T14:41:14.234Z,69.83
2019-06-10T14:43:42.442Z,69.73
2019-06-10T14:46:09.455Z,69.00
2019-06-10T14:48:36.439Z,68.50
2019-06-10T14:51:08.877Z,68.50
2019-06-10T14:53:35.991Z,68.94
2019-06-10T14:56:03.850Z,68.52
2019-06-10T14:58:33.905Z,68.50
2019-06-10T15:01:04.359Z,68.48
2019-06-10T15:03:29.759Z,68.72
2019-06-10T15:05:56.842Z,68.08
2019-06-10T15:08:28.947Z,68.43
2019-06-10T15:10:56.006Z,69.09
2019-06-10T15:13:28.167Z,68.53
2019-06-10T15:15:55.139Z,68.50
2019-06-10T15:18:23.601Z,69.33
2019-06-10T15:20:53.415Z,69.51
2019-06-10T15:23:21.001Z,69.48
2019-06-10T15:25:53.009Z,70.00
2019-06-10T15:28:17.698Z,69.74
2019-06-10T15:30:48.092Z,69.78
2019-06-10T15:33:16.655Z,69.66
2019-06-10T15:35:43.970Z,70.12
2019-06-10T15:38:14.826Z,69.46
2019-06-10T15:40:39.876Z,69.48
2019-06-10T15:43:06.885Z,70.15
2019-06-10T15:45:36.953Z,69.76
2019-06-10T15:48:06.867Z,70.34
2019-06-10T15:50:33.882Z,70.38
2019-06-10T15:53:03.031Z,70.38
2019-06-10T15:55:55.570Z,69.67
2019-06-10T15:58:01.932Z,70.09
2019-06-10T16:00:29.475Z,69.96
2019-06-10T16:02:56.595Z,69.43
2019-06-10T16:05:26.343Z,69.82
2019-06-10T16:07:56.389Z,70.04
2019-06-10T16:10:27.797Z,69.93
2019-06-10T16:12:55.389Z,69.34
2019-06-10T16:15:24.763Z,69.93
2019-06-10T16:17:53.414Z,70.39
2019-06-10T16:20:23.541Z,69.71
2019-06-10T16:22:52.337Z,69.49
2019-06-10T16:25:19.996Z,69.64
2019-06-10T16:27:51.042Z,69.41
2019-06-10T16:30:18.725Z,70.06
2019-06-10T16:32:46.586Z,70.07
2019-06-10T16:35:16.792Z,69.83
2019-06-10T16:37:43.812Z,69.72
2019-06-10T16:40:15.114Z,69.99
2019-06-10T16:42:43.125Z,70.05
2019-06-10T16:45:12.973Z,69.33
2019-06-10T16:47:42.870Z,69.95
2019-06-10T16:50:09.424Z,70.36
2019-06-10T16:52:36.448Z,70.04
2019-06-10T16:55:03.710Z,70.10
2019-06-10T16:57:33.270Z,70.02
2019-06-10T17:00:04.139Z,70.40
2019-06-10T17:02:32.915Z,70.41
2019-06-10T17:04:59.162Z,70.45
2019-06-10T17:07:26.927Z,70.50
2019-06-10T17:09:54.028Z,70.77
2019-06-10T17:12:24.863Z,70.89
2019-06-10T17:14:55.261Z,71.11
2019-06-10T17:17:24.818Z,70.83
2019-06-10T17:19:51.193Z,71.05
2019-06-10T17:22:23.508Z,71.08
2019-06-10T17:24:50.049Z,71.22
2019-06-10T17:27:22.276Z,71.13
2019-06-10T17:29:48.439Z,71.32
2019-06-10T17:32:15.842Z,71.38
2019-06-10T17:34:45.408Z,71.02
2019-06-10T17:37:12.625Z,71.31
2019-06-10T17:39:39.632Z,71.22
2019-06-10T17:42:06.620Z,71.55
2019-06-10T17:44:33.634Z,71.55
2019-06-10T17:47:02.229Z,72.04
2019-06-10T17:49:30.357Z,72.39
2019-06-10T17:51:58.437Z,72.24
2019-06-10T17:54:26.787Z,72.17
2019-06-10T17:56:56.399Z,72.10
2019-06-10T17:59:26.811Z,72.48
2019-06-10T18:01:53.876Z,72.78
2019-06-10T18:04:22.614Z,72.88
2019-06-10T18:06:53.494Z,72.52
2019-06-10T18:09:22.697Z,72.80
2019-06-10T18:11:49.558Z,73.28
2019-06-10T18:14:16.633Z,73.57
2019-06-10T18:16:43.628Z,72.86
2019-06-10T18:19:10.661Z,73.51
2019-06-10T18:21:38.818Z,72.99
2019-06-10T18:24:12.708Z,73.29
2019-06-10T18:26:39.668Z,73.78
2019-06-10T18:29:09.167Z,73.81
2019-06-10T18:31:43.006Z,74.13
2019-06-10T18:34:10.174Z,74.33
2019-06-10T18:36:37.711Z,74.35
2019-06-10T18:39:06.032Z,74.96
2019-06-10T18:41:34.199Z,75.04
2019-06-10T18:44:02.316Z,75.26
2019-06-10T18:46:30.443Z,74.87
2019-06-10T18:48:58.411Z,75.30
2019-06-10T18:51:25.498Z,75.41
2019-06-10T18:53:54.214Z,75.22
2019-06-10T18:56:23.328Z,75.02
2019-06-10T18:58:52.890Z,74.87
2019-06-10T19:01:22.647Z,74.79
2019-06-10T19:03:51.611Z,74.82
2019-06-10T19:06:18.597Z,74.90
2019-06-10T19:08:45.616Z,74.98
2019-06-10T19:11:12.804Z,74.89
2019-06-10T19:13:40.972Z,74.92
2019-06-10T19:16:13.151Z,75.19
2019-06-10T19:18:42.940Z,75.17
2019-06-10T19:21:09.232Z,75.07
2019-06-10T19:23:37.820Z,74.99
2019-06-10T19:26:09.539Z,75.71
2019-06-10T19:28:38.450Z,75.77
2019-06-10T19:31:05.433Z,75.76
2019-06-10T19:33:35.206Z,75.65
2019-06-10T19:36:02.245Z,75.90
2019-06-10T19:38:38.748Z,76.09
2019-06-10T19:41:08.585Z,76.46
2019-06-10T19:43:39.513Z,76.62
2019-06-10T19:46:07.726Z,76.39
2019-06-10T19:48:38.386Z,76.56
2019-06-10T19:51:08.738Z,76.56
2019-06-10T19:53:37.233Z,76.74
2019-06-10T19:56:04.429Z,76.74
2019-06-10T19:58:36.355Z,76.80
2019-06-10T20:01:03.334Z,76.40
2019-06-10T20:03:32.547Z,76.15
2019-06-10T20:05:59.204Z,76.35
2019-06-10T20:08:26.244Z,76.62
2019-06-10T20:10:53.417Z,76.59
2019-06-10T20:13:22.530Z,76.74
2019-06-10T20:15:52.476Z,76.61
2019-06-10T20:18:19.599Z,76.49
2019-06-10T20:20:47.241Z,77.01
2019-06-10T20:23:19.920Z,76.90
2019-06-10T20:25:49.907Z,77.27
2019-06-10T20:28:16.910Z,77.24
2019-06-10T20:30:48.669Z,77.13
2019-06-10T20:33:29.264Z,78.24
2019-06-10T20:35:56.326Z,78.12
2019-06-10T20:38:23.305Z,78.51
2019-06-10T20:40:52.990Z,78.53
2019-06-10T20:43:19.383Z,78.63
2019-06-10T20:45:47.990Z,78.67
2019-06-10T20:48:15.123Z,78.89
2019-06-10T20:50:44.342Z,79.01
2019-06-10T20:53:17.660Z,79.04
2019-06-10T20:55:43.343Z,79.38
2019-06-10T20:58:09.237Z,79.67
2019-06-10T21:00:37.151Z,79.48
2019-06-10T21:03:04.699Z,79.89
2019-06-10T21:05:32.929Z,80.42
2019-06-10T21:08:03.009Z,80.56
2019-06-10T21:10:34.876Z,80.47
2019-06-10T21:13:05.714Z,80.66
2019-06-10T21:15:33.384Z,80.58
2019-06-10T21:18:00.418Z,80.52
2019-06-10T21:20:28.499Z,81.67
2019-06-10T21:22:55.521Z,81.52
2019-06-10T21:25:22.979Z,81.58
2019-06-10T21:27:53.852Z,81.72
2019-06-10T21:30:34.794Z,82.41
2019-06-10T21:32:54.612Z,82.80
2019-06-10T21:35:19.839Z,82.88
2019-06-10T21:37:51.710Z,82.71
2019-06-10T21:40:18.783Z,82.71
2019-06-10T21:42:45.858Z,82.70
2019-06-10T21:45:16.017Z,83.16
2019-06-10T21:47:47.084Z,82.69
2019-06-10T21:50:15.601Z,82.42
2019-06-10T21:52:45.832Z,82.85
2019-06-10T21:55:17.857Z,82.41
2019-06-10T21:57:45.972Z,83.24
2019-06-10T22:00:16.538Z,82.96
2019-06-10T22:02:47.105Z,83.25
2019-06-10T22:05:14.371Z,83.18
2019-06-10T22:07:42.354Z,82.91
2019-06-10T22:10:12.791Z,83.77
2019-06-10T22:12:42.012Z,83.60
2019-06-10T22:15:13.992Z,83.58
2019-06-10T22:17:42.456Z,83.88
2019-06-10T22:20:12.347Z,83.98
2019-06-10T22:22:39.549Z,84.33
2019-06-10T22:25:06.645Z,84.32
2019-06-10T22:27:33.647Z,84.79
2019-06-10T22:30:10.968Z,84.50
2019-06-10T22:32:32.332Z,84.37
2019-06-10T22:34:59.391Z,84.41
2019-06-10T22:37:32.981Z,85.02
2019-06-10T22:40:03.367Z,84.67
2019-06-10T22:42:32.766Z,85.30
2019-06-10T22:45:00.270Z,85.21
2019-06-10T22:47:28.531Z,84.92
2019-06-10T22:49:59.868Z,85.13
2019-06-10T22:52:27.222Z,85.21
2019-06-10T22:54:56.774Z,85.28
2019-06-10T22:57:30.757Z,84.67
2019-06-10T23:00:02.931Z,84.94
2019-06-10T23:02:29.441Z,85.00
2019-06-10T23:04:59.400Z,84.41
2019-06-10T23:07:25.288Z,84.01
2019-06-10T23:09:56.015Z,84.00
2019-06-10T23:12:23.403Z,83.71
2019-06-10T23:14:55.983Z,84.02
2019-06-10T23:17:25.421Z,83.79
2019-06-10T23:19:53.928Z,83.71
2019-06-10T23:22:22.003Z,83.69
2019-06-10T23:24:49.562Z,84.49
2019-06-10T23:27:16.589Z,83.95
2019-06-10T23:29:45.377Z,84.55
2019-06-10T23:32:16.863Z,84.43
2019-06-10T23:34:43.836Z,84.23
2019-06-10T23:37:12.525Z,83.65
2019-06-10T23:39:42.604Z,83.47
2019-06-10T23:42:14.191Z,83.43
2019-06-10T23:44:41.161Z,83.51
2019-06-10T23:47:08.175Z,83.27
2019-06-10T23:49:37.745Z,83.34
2019-06-10T23:52:05.585Z,83.50
2019-06-10T23:54:41.814Z,83.69
2019-06-10T23:57:08.887Z,83.13
2019-06-10T23:59:35.951Z,82.65
